createdAt,value
2023-02-21T00:00:58.629Z,53.71
2023-02-21T00:01:58.673Z,53.72
2023-02-21T00:02:58.673Z,53.67
2023-02-21T00:03:58.657Z,53.67
2023-02-21T00:04:58.653Z,53.46
2023-02-21T00:05:58.649Z,53.31
2023-02-21T00:07:58.641Z,53.32
2023-02-21T00:08:58.637Z,53.18
2023-02-21T00:10:58.651Z,53.22
2023-02-21T00:11:58.607Z,53.19
2023-02-21T00:14:58.638Z,53.40
2023-02-21T00:15:58.641Z,53.38
2023-02-21T00:16:58.625Z,53.45
2023-02-21T00:17:58.668Z,53.42
2023-02-21T00:18:58.637Z,53.54
2023-02-21T00:19:58.624Z,53.60
2023-02-21T00:20:58.728Z,53.57
2023-02-21T00:21:58.681Z,53.57
2023-02-21T00:22:58.649Z,53.64
2023-02-21T00:23:58.650Z,53.80
2023-02-21T00:24:58.666Z,53.74
2023-02-21T00:26:58.710Z,53.82
2023-02-21T00:27:58.697Z,53.85
2023-02-21T00:29:58.703Z,54.00
2023-02-21T00:31:58.720Z,53.97
2023-02-21T00:33:58.675Z,53.97
2023-02-21T00:34:58.711Z,54.03
2023-02-21T00:35:58.704Z,54.00
2023-02-21T00:36:58.718Z,54.03
2023-02-21T00:37:58.727Z,54.18
2023-02-21T00:38:58.731Z,54.39
2023-02-21T00:39:58.701Z,54.39
2023-02-21T00:40:58.732Z,54.37
2023-02-21T00:41:58.710Z,54.32
2023-02-21T00:42:58.733Z,54.28
2023-02-21T00:43:58.791Z,54.33
2023-02-21T00:44:58.705Z,54.33
2023-02-21T00:45:58.759Z,54.26
2023-02-21T00:46:58.747Z,54.19
2023-02-21T00:47:58.711Z,54.27
2023-02-21T00:48:58.746Z,54.17
2023-02-21T00:49:58.708Z,54.06
2023-02-21T00:51:58.769Z,54.32
2023-02-21T00:55:58.764Z,54.44
2023-02-21T00:56:58.794Z,54.24
2023-02-21T00:57:58.770Z,54.24
2023-02-21T01:00:58.823Z,54.03
2023-02-21T01:01:58.823Z,53.93
2023-02-21T01:02:59.962Z,54.04
2023-02-21T01:03:58.781Z,54.14
2023-02-21T01:04:58.752Z,54.14
2023-02-21T01:05:58.748Z,54.09
2023-02-21T01:07:58.803Z,54.16
2023-02-21T01:08:58.761Z,54.05
2023-02-21T01:09:58.804Z,54.19
2023-02-21T01:10:58.798Z,54.26
2023-02-21T01:11:58.818Z,54.27
2023-02-21T01:13:58.808Z,54.36
2023-02-21T01:15:58.890Z,54.48
2023-02-21T01:17:07.899Z,54.41
2023-02-21T01:18:58.835Z,54.09
2023-02-21T01:19:58.857Z,54.03
2023-02-21T01:20:58.836Z,54.03
2023-02-21T01:21:58.795Z,54.15
2023-02-21T01:22:58.838Z,54.20
2023-02-21T01:23:58.787Z,54.31
2023-02-21T01:24:58.877Z,54.51
2023-02-21T01:25:58.791Z,54.51
2023-02-21T01:26:58.903Z,54.57
2023-02-21T01:27:58.848Z,54.53
2023-02-21T01:28:58.848Z,54.76
2023-02-21T01:29:58.883Z,54.83
2023-02-21T01:30:58.845Z,54.83
2023-02-21T01:31:58.911Z,54.96
2023-02-21T01:32:58.895Z,55.05
2023-02-21T01:33:58.871Z,55.26
2023-02-21T01:34:58.869Z,55.31
2023-02-21T01:36:58.874Z,55.24
2023-02-21T01:37:58.932Z,55.17
2023-02-21T01:40:58.891Z,55.12
2023-02-21T01:41:58.893Z,55.41
2023-02-21T01:42:58.878Z,55.41
2023-02-21T01:45:58.895Z,55.49
2023-02-21T01:46:58.863Z,55.52
2023-02-21T01:47:58.863Z,55.46
2023-02-21T01:50:58.872Z,55.49
2023-02-21T01:52:58.938Z,55.56
2023-02-21T01:53:58.908Z,55.56
2023-02-21T01:55:58.869Z,55.59
2023-02-21T01:56:58.868Z,55.69
2023-02-21T01:57:58.912Z,55.74
2023-02-21T01:58:58.897Z,55.66
2023-02-21T01:59:58.880Z,55.62
2023-02-21T02:00:58.880Z,55.66
2023-02-21T02:01:58.898Z,55.74
2023-02-21T02:02:58.934Z,55.66
2023-02-21T02:03:58.883Z,55.58
2023-02-21T02:04:58.903Z,55.63
2023-02-21T02:08:58.908Z,55.79
2023-02-21T02:09:58.910Z,55.75
2023-02-21T02:10:58.955Z,55.82
2023-02-21T02:11:58.911Z,55.82
2023-02-21T02:12:58.921Z,55.88
2023-02-21T02:13:58.932Z,56.00
2023-02-21T02:14:58.930Z,55.96
2023-02-21T02:15:58.973Z,55.91
2023-02-21T02:16:58.961Z,55.89
2023-02-21T02:17:58.973Z,55.84
2023-02-21T02:18:59.000Z,55.86
2023-02-21T02:19:58.966Z,55.86
2023-02-21T02:20:58.935Z,55.95
2023-02-21T02:21:58.981Z,56.02
2023-02-21T02:22:58.944Z,56.17
2023-02-21T02:23:59.024Z,56.01
2023-02-21T02:24:58.958Z,55.98
2023-02-21T02:25:58.949Z,55.98
2023-02-21T02:26:58.985Z,56.00
2023-02-21T02:27:58.986Z,56.03
2023-02-21T02:28:58.959Z,56.08
2023-02-21T02:29:58.971Z,56.04
2023-02-21T02:30:59.048Z,56.09
2023-02-21T02:31:59.203Z,56.09
2023-02-21T02:32:59.011Z,56.09
2023-02-21T02:33:59.004Z,56.06
2023-02-21T02:34:59.014Z,56.11
2023-02-21T02:35:59.007Z,56.11
2023-02-21T02:36:59.048Z,56.22
2023-02-21T02:37:59.012Z,56.17
2023-02-21T02:38:58.970Z,56.45
2023-02-21T02:39:59.032Z,56.57
2023-02-21T02:40:58.982Z,56.52
2023-02-21T02:41:59.070Z,56.77
2023-02-21T02:42:59.030Z,56.77
2023-02-21T02:43:59.029Z,56.84
2023-02-21T02:44:58.988Z,56.86
2023-02-21T02:45:59.055Z,56.65
2023-02-21T02:47:58.995Z,56.59
2023-02-21T02:48:59.032Z,56.31
2023-02-21T02:49:59.083Z,56.38
2023-02-21T02:50:59.027Z,56.38
2023-02-21T02:51:59.006Z,56.44
2023-02-21T02:52:59.072Z,56.10
2023-02-21T02:53:59.044Z,56.16
2023-02-21T02:54:59.062Z,56.32
2023-02-21T02:55:59.049Z,56.79
2023-02-21T02:56:59.040Z,57.13
2023-02-21T02:57:59.064Z,57.10
2023-02-21T02:58:59.019Z,57.40
2023-02-21T03:00:59.068Z,57.31
2023-02-21T03:01:59.114Z,57.29
2023-02-21T03:02:59.038Z,57.35
2023-02-21T03:03:59.134Z,57.20
2023-02-21T03:04:59.124Z,57.33
2023-02-21T03:05:59.095Z,57.27
2023-02-21T03:06:59.092Z,57.27
2023-02-21T03:07:59.040Z,57.29
2023-02-21T03:09:59.134Z,56.72
2023-02-21T03:10:59.055Z,56.72
2023-02-21T03:11:59.060Z,56.64
2023-02-21T03:13:01.468Z,56.51
2023-02-21T03:13:59.102Z,56.43
2023-02-21T03:14:59.107Z,56.62
2023-02-21T03:15:59.123Z,56.62
2023-02-21T03:17:59.132Z,56.73
2023-02-21T03:18:59.121Z,56.70
2023-02-21T03:21:59.125Z,56.64
2023-02-21T03:22:59.160Z,56.72
2023-02-21T03:23:59.094Z,56.72
2023-02-21T03:24:59.095Z,56.75
2023-02-21T03:25:59.077Z,56.68
2023-02-21T03:26:59.088Z,56.59
2023-02-21T03:27:59.336Z,56.59
2023-02-21T03:28:59.131Z,56.46
2023-02-21T03:29:59.137Z,56.40
2023-02-21T03:30:59.149Z,56.34
2023-02-21T03:31:59.149Z,56.39
2023-02-21T03:32:59.186Z,56.47
2023-02-21T03:33:59.168Z,56.47
2023-02-21T03:34:59.162Z,56.67
2023-02-21T03:35:59.154Z,56.70
2023-02-21T03:36:59.156Z,56.81
2023-02-21T03:37:59.164Z,56.90
2023-02-21T03:38:59.170Z,57.18
2023-02-21T03:40:59.165Z,57.36
2023-02-21T03:41:59.168Z,57.43
2023-02-21T03:42:59.130Z,57.54
2023-02-21T03:43:59.187Z,57.40
2023-02-21T03:45:59.193Z,57.41
2023-02-21T03:48:59.146Z,57.35
2023-02-21T03:49:59.191Z,57.49
2023-02-21T03:52:59.200Z,57.58
2023-02-21T03:53:59.233Z,57.61
2023-02-21T03:54:59.200Z,57.69
2023-02-21T03:55:59.207Z,57.74
2023-02-21T03:56:59.167Z,57.70
2023-02-21T03:57:59.157Z,57.61
2023-02-21T03:59:59.190Z,57.50
2023-02-21T04:00:59.240Z,57.46
2023-02-21T04:01:59.322Z,57.31
2023-02-21T04:03:59.217Z,57.34
2023-02-21T04:04:59.218Z,57.48
2023-02-21T04:05:59.241Z,57.36
2023-02-21T04:06:59.234Z,57.26
2023-02-21T04:09:59.196Z,57.02
2023-02-21T04:11:59.288Z,56.80
2023-02-21T04:12:59.211Z,56.80
2023-02-21T04:13:59.274Z,56.69
2023-02-21T04:14:59.261Z,56.62
2023-02-21T04:15:59.270Z,56.65
2023-02-21T04:16:59.294Z,56.71
2023-02-21T04:17:59.255Z,56.71
2023-02-21T04:18:59.230Z,56.83
2023-02-21T04:20:59.236Z,56.70
2023-02-21T04:21:59.237Z,56.70
2023-02-21T04:23:03.440Z,56.81
2023-02-21T04:23:59.234Z,56.81
2023-02-21T04:24:59.315Z,56.78
2023-02-21T04:26:59.294Z,56.62
2023-02-21T04:27:59.254Z,56.55
2023-02-21T04:28:59.251Z,56.55
2023-02-21T04:29:59.280Z,56.55
2023-02-21T04:30:59.318Z,56.55
2023-02-21T04:31:59.425Z,56.48
2023-02-21T04:32:59.345Z,56.59
2023-02-21T04:34:59.249Z,56.70
2023-02-21T04:36:59.281Z,57.00
2023-02-21T04:37:59.300Z,56.86
2023-02-21T04:38:59.278Z,56.86
2023-02-21T04:40:59.279Z,57.03
2023-02-21T04:42:59.364Z,57.12
2023-02-21T04:45:00.412Z,57.34
2023-02-21T04:45:59.386Z,57.37
2023-02-21T04:47:59.336Z,57.42
2023-02-21T04:51:13.534Z,57.46
2023-02-21T04:51:59.355Z,57.46
2023-02-21T04:52:59.362Z,57.39
2023-02-21T04:53:59.369Z,57.37
2023-02-21T04:54:59.310Z,57.38
2023-02-21T04:55:59.358Z,57.03
2023-02-21T04:56:59.386Z,57.03
2023-02-21T04:59:59.368Z,57.18
2023-02-21T05:00:59.368Z,57.08
2023-02-21T05:02:01.206Z,57.07
2023-02-21T05:02:59.360Z,57.02
2023-02-21T05:03:59.423Z,56.99
2023-02-21T05:04:59.401Z,57.05
2023-02-21T05:05:59.364Z,57.08
2023-02-21T05:07:59.388Z,56.93
2023-02-21T05:08:59.431Z,56.87
2023-02-21T05:09:59.388Z,56.83
2023-02-21T05:10:59.386Z,56.88
2023-02-21T05:11:59.397Z,56.87
2023-02-21T05:12:59.371Z,56.84
2023-02-21T05:13:59.401Z,56.98
2023-02-21T05:15:59.409Z,57.00
2023-02-21T05:16:59.393Z,57.01
2023-02-21T05:17:59.383Z,56.88
2023-02-21T05:18:59.392Z,56.65
2023-02-21T05:19:59.364Z,56.65
2023-02-21T05:20:59.419Z,56.61
2023-02-21T05:23:59.405Z,56.66
2023-02-21T05:24:59.427Z,56.83
2023-02-21T05:25:59.435Z,57.13
2023-02-21T05:26:59.439Z,57.21
2023-02-21T05:27:59.444Z,57.04
2023-02-21T05:31:13.233Z,57.32
2023-02-21T05:31:59.495Z,57.51
2023-02-21T05:32:59.410Z,57.51
2023-02-21T05:33:59.401Z,57.55
2023-02-21T05:35:59.404Z,58.20
2023-02-21T05:36:59.454Z,58.30
2023-02-21T05:37:59.406Z,58.31
2023-02-21T05:38:59.484Z,58.55
2023-02-21T05:39:59.427Z,59.10
2023-02-21T05:41:59.462Z,59.10
2023-02-21T05:42:59.429Z,59.43
2023-02-21T05:44:59.436Z,59.45
2023-02-21T05:45:59.487Z,59.46
2023-02-21T05:46:59.499Z,59.34
2023-02-21T05:47:59.436Z,59.34
2023-02-21T05:48:59.500Z,59.38
2023-02-21T05:49:59.448Z,59.38
2023-02-21T05:50:59.463Z,58.94
2023-02-21T05:51:59.488Z,58.94
2023-02-21T05:52:59.467Z,58.50
2023-02-21T05:53:59.483Z,58.50
2023-02-21T05:54:59.495Z,58.22
2023-02-21T05:55:59.468Z,57.91
2023-02-21T05:59:59.514Z,58.08
2023-02-21T06:00:59.505Z,58.45
2023-02-21T06:02:59.459Z,58.02
2023-02-21T06:03:59.511Z,57.87
2023-02-21T06:04:59.561Z,57.35
2023-02-21T06:05:59.498Z,57.35
2023-02-21T06:06:59.499Z,57.02
2023-02-21T06:07:59.475Z,56.97
2023-02-21T06:08:59.519Z,56.87
2023-02-21T06:09:59.560Z,56.68
2023-02-21T06:10:59.525Z,56.68
2023-02-21T06:11:59.543Z,56.65
2023-02-21T06:12:59.527Z,56.63
2023-02-21T06:13:59.534Z,56.72
2023-02-21T06:14:59.533Z,56.88
2023-02-21T06:15:59.521Z,56.99
2023-02-21T06:16:59.523Z,57.16
2023-02-21T06:18:59.510Z,57.30
2023-02-21T06:19:59.511Z,57.43
2023-02-21T06:20:59.518Z,57.48
2023-02-21T06:22:59.560Z,57.78
2023-02-21T06:23:59.519Z,57.78
2023-02-21T06:24:59.534Z,57.47
2023-02-21T06:25:59.566Z,57.41
2023-02-21T06:26:59.521Z,57.41
2023-02-21T06:27:59.538Z,57.27
2023-02-21T06:29:00.502Z,57.27
2023-02-21T06:31:59.583Z,57.20
2023-02-21T06:32:59.556Z,57.12
2023-02-21T06:33:59.581Z,56.98
2023-02-21T06:34:59.579Z,57.03
2023-02-21T06:35:59.600Z,56.98
2023-02-21T06:36:59.570Z,56.98
2023-02-21T06:37:59.605Z,56.91
2023-02-21T06:38:59.600Z,56.91
2023-02-21T06:40:59.608Z,56.89
2023-02-21T06:45:59.618Z,56.43
2023-02-21T06:46:59.636Z,56.50
2023-02-21T06:48:59.624Z,56.56
2023-02-21T06:49:59.621Z,56.53
2023-02-21T06:50:59.641Z,56.53
2023-02-21T06:51:59.673Z,56.29
2023-02-21T06:52:59.628Z,56.29
2023-02-21T06:53:59.612Z,56.31
2023-02-21T06:54:59.607Z,56.29
2023-02-21T06:56:59.647Z,56.21
2023-02-21T06:57:59.633Z,56.22
2023-02-21T06:58:59.622Z,56.12
2023-02-21T06:59:59.624Z,56.12
2023-02-21T07:00:59.621Z,55.99
2023-02-21T07:01:59.806Z,55.99
2023-02-21T07:03:59.713Z,55.83
2023-02-21T07:04:59.681Z,55.68
2023-02-21T07:05:59.634Z,55.63
2023-02-21T07:06:59.717Z,55.59
2023-02-21T07:07:59.629Z,55.52
2023-02-21T07:08:59.642Z,55.52
2023-02-21T07:09:59.680Z,55.52
2023-02-21T07:10:59.658Z,55.41
2023-02-21T07:11:59.656Z,55.34
2023-02-21T07:12:59.706Z,55.14
2023-02-21T07:13:59.658Z,55.01
2023-02-21T07:14:59.698Z,55.01
2023-02-21T07:15:59.707Z,54.88
2023-02-21T07:16:59.728Z,54.57
2023-02-21T07:17:59.718Z,54.47
2023-02-21T07:18:59.664Z,54.31
2023-02-21T07:19:59.685Z,54.17
2023-02-21T07:20:59.671Z,53.98
2023-02-21T07:21:59.764Z,53.85
2023-02-21T07:22:59.721Z,53.62
2023-02-21T07:23:59.715Z,53.62
2023-02-21T07:24:59.673Z,53.09
2023-02-21T07:25:59.735Z,52.62
2023-02-21T07:26:59.726Z,51.71
2023-02-21T07:27:59.691Z,50.70
2023-02-21T07:28:59.747Z,49.38
2023-02-21T07:29:59.701Z,47.83
2023-02-21T07:30:59.748Z,45.95
2023-02-21T07:31:59.892Z,44.20
2023-02-21T07:32:59.696Z,42.48
2023-02-21T07:33:59.715Z,41.16
2023-02-21T07:34:59.751Z,39.79
2023-02-21T07:35:59.722Z,38.67
2023-02-21T07:36:59.739Z,37.54
2023-02-21T07:37:59.753Z,37.54
2023-02-21T07:38:59.746Z,37.09
2023-02-21T07:39:59.760Z,36.28
2023-02-21T07:40:59.724Z,36.05
2023-02-21T07:41:59.791Z,35.62
2023-02-21T07:42:59.763Z,35.40
2023-02-21T07:43:59.782Z,33.94
2023-02-21T07:44:59.796Z,33.08
2023-02-21T07:45:59.881Z,31.68
2023-02-21T07:46:59.770Z,30.89
2023-02-21T07:47:59.772Z,30.38
2023-02-21T07:48:59.791Z,29.63
2023-02-21T07:49:59.824Z,28.93
2023-02-21T07:50:59.811Z,28.23
2023-02-21T07:51:59.746Z,28.23
2023-02-21T07:52:59.841Z,27.20
2023-02-21T07:53:59.794Z,26.70
2023-02-21T07:54:59.767Z,26.06
2023-02-21T07:55:59.799Z,25.53
2023-02-21T07:56:59.816Z,25.33
2023-02-21T07:57:59.808Z,25.35
2023-02-21T07:58:59.783Z,24.89
2023-02-21T07:59:59.806Z,24.66
2023-02-21T08:00:59.771Z,24.73
2023-02-21T08:01:59.846Z,24.42
2023-02-21T08:02:59.860Z,24.24
2023-02-21T08:03:59.774Z,24.24
2023-02-21T08:04:59.937Z,24.08
2023-02-21T08:05:59.822Z,23.67
2023-02-21T08:06:59.787Z,23.20
2023-02-21T08:07:59.865Z,23.03
2023-02-21T08:08:59.832Z,22.54
2023-02-21T08:09:59.824Z,22.54
2023-02-21T08:10:59.840Z,21.87
2023-02-21T08:11:59.793Z,21.87
2023-02-21T08:12:59.823Z,21.52
2023-02-21T08:13:59.798Z,21.36
2023-02-21T08:14:59.844Z,21.36
2023-02-21T08:15:59.878Z,21.09
2023-02-21T08:16:59.852Z,21.16
2023-02-21T08:17:59.839Z,21.16
2023-02-21T08:18:59.810Z,21.09
2023-02-21T08:19:59.847Z,21.12
2023-02-21T08:20:59.909Z,21.30
2023-02-21T08:21:59.870Z,21.28
2023-02-21T08:22:59.829Z,21.44
2023-02-21T08:23:59.824Z,21.55
2023-02-21T08:24:59.851Z,21.55
2023-02-21T08:25:59.840Z,21.79
2023-02-21T08:26:59.828Z,21.43
2023-02-21T08:27:59.873Z,21.04
2023-02-21T08:28:59.912Z,20.70
2023-02-21T08:30:00.075Z,20.67
2023-02-21T08:30:59.895Z,20.67
2023-02-21T08:31:59.932Z,20.77
2023-02-21T08:32:59.852Z,20.50
2023-02-21T08:33:59.915Z,20.45
2023-02-21T08:34:59.897Z,20.26
2023-02-21T08:35:59.870Z,20.05
2023-02-21T08:36:59.860Z,20.05
2023-02-21T08:37:59.897Z,19.64
2023-02-21T08:38:59.970Z,19.62
2023-02-21T08:39:59.903Z,19.55
2023-02-21T08:40:59.860Z,19.55
2023-02-21T08:41:59.921Z,19.84
2023-02-21T08:43:59.894Z,19.77
2023-02-21T08:44:59.933Z,19.70
2023-02-21T08:45:59.884Z,19.48
2023-02-21T08:46:59.977Z,19.21
2023-02-21T08:47:59.925Z,19.21
2023-02-21T08:48:59.912Z,19.32
2023-02-21T08:49:59.929Z,18.85
2023-02-21T08:50:59.900Z,18.80
2023-02-21T08:51:59.938Z,18.76
2023-02-21T08:52:59.908Z,18.57
2023-02-21T08:53:59.924Z,18.55
2023-02-21T08:54:59.918Z,18.21
2023-02-21T08:55:59.939Z,18.21
2023-02-21T08:56:59.948Z,17.99
2023-02-21T08:57:59.974Z,17.76
2023-02-21T08:58:59.960Z,17.54
2023-02-21T09:00:00.001Z,17.08
2023-02-21T09:00:59.951Z,17.08
2023-02-21T09:02:00.005Z,16.86
2023-02-21T09:02:59.965Z,16.60
2023-02-21T09:03:59.945Z,16.68
2023-02-21T09:05:00.014Z,16.47
2023-02-21T09:05:59.986Z,16.35
2023-02-21T09:06:59.958Z,16.35
2023-02-21T09:07:59.972Z,15.84
2023-02-21T09:08:59.987Z,15.89
2023-02-21T09:10:01.245Z,15.89
2023-02-21T09:10:59.985Z,15.63
2023-02-21T09:11:59.964Z,15.54
2023-02-21T09:13:00.021Z,15.68
2023-02-21T09:13:59.965Z,15.62
2023-02-21T09:14:59.971Z,15.53
2023-02-21T09:16:00.226Z,15.33
2023-02-21T09:17:00.006Z,15.21
2023-02-21T09:18:00.046Z,15.19
2023-02-21T09:19:00.035Z,15.19
2023-02-21T09:20:00.024Z,15.10
2023-02-21T09:21:00.028Z,14.94
2023-02-21T09:22:01.710Z,14.85
2023-02-21T09:22:59.993Z,14.69
2023-02-21T09:24:00.027Z,14.60
2023-02-21T09:24:59.987Z,14.60
2023-02-21T09:26:00.095Z,14.51
2023-02-21T09:27:00.038Z,14.65
2023-02-21T09:28:00.024Z,14.65
2023-02-21T09:29:00.009Z,15.10
2023-02-21T09:30:00.041Z,15.10
2023-02-21T09:31:00.056Z,15.50
2023-02-21T09:32:00.073Z,15.41
2023-02-21T09:33:00.016Z,15.41
2023-02-21T09:34:00.023Z,15.37
2023-02-21T09:35:00.011Z,15.36
2023-02-21T09:36:00.041Z,15.52
2023-02-21T09:37:00.097Z,15.58
2023-02-21T09:38:00.062Z,15.63
2023-02-21T09:39:00.181Z,15.66
2023-02-21T09:40:00.063Z,15.66
2023-02-21T09:41:00.047Z,16.02
2023-02-21T09:42:00.048Z,16.02
2023-02-21T09:43:00.052Z,16.11
2023-02-21T09:44:00.096Z,16.02
2023-02-21T09:45:00.107Z,15.81
2023-02-21T09:46:00.151Z,15.81
2023-02-21T09:47:00.044Z,15.73
2023-02-21T09:48:00.074Z,15.16
2023-02-21T09:49:00.085Z,15.16
2023-02-21T09:50:00.086Z,14.47
2023-02-21T09:51:00.141Z,14.22
2023-02-21T09:52:00.171Z,14.03
2023-02-21T09:53:00.090Z,13.82
2023-02-21T09:54:00.103Z,13.75
2023-02-21T09:55:00.111Z,13.72
2023-02-21T09:56:00.120Z,13.64
2023-02-21T09:57:00.109Z,13.70
2023-02-21T09:58:00.114Z,13.70
2023-02-21T09:59:00.133Z,13.66
2023-02-21T10:00:00.183Z,13.65
2023-02-21T10:01:00.185Z,13.73
2023-02-21T10:02:00.125Z,14.03
2023-02-21T10:03:00.128Z,14.03
2023-02-21T10:04:00.163Z,14.55
2023-02-21T10:05:00.225Z,15.20
2023-02-21T10:06:00.138Z,15.85
2023-02-21T10:07:00.139Z,15.85
2023-02-21T10:08:00.118Z,17.71
2023-02-21T10:09:00.137Z,18.50
2023-02-21T10:10:00.145Z,19.28
2023-02-21T10:11:00.147Z,19.28
2023-02-21T10:12:00.155Z,20.46
2023-02-21T10:13:00.148Z,21.30
2023-02-21T10:14:00.166Z,21.84
2023-02-21T10:15:00.182Z,22.30
2023-02-21T10:16:00.180Z,22.57
2023-02-21T10:17:00.166Z,23.09
2023-02-21T10:18:00.126Z,23.09
2023-02-21T10:19:00.123Z,23.56
2023-02-21T10:20:00.183Z,24.37
2023-02-21T10:21:00.142Z,24.69
2023-02-21T10:22:00.189Z,24.69
2023-02-21T10:23:00.192Z,25.27
2023-02-21T10:24:00.139Z,25.27
2023-02-21T10:25:00.192Z,25.84
2023-02-21T10:26:00.159Z,25.84
2023-02-21T10:27:00.159Z,25.92
2023-02-21T10:28:00.224Z,25.91
2023-02-21T10:29:00.193Z,26.51
2023-02-21T10:30:00.199Z,26.64
2023-02-21T10:31:00.308Z,26.84
2023-02-21T10:32:00.292Z,26.84
2023-02-21T10:33:00.210Z,27.05
2023-02-21T10:34:00.209Z,27.34
2023-02-21T10:35:00.300Z,27.56
2023-02-21T10:36:00.192Z,27.72
2023-02-21T10:37:00.280Z,27.83
2023-02-21T10:38:00.222Z,27.80
2023-02-21T10:39:00.223Z,27.80
2023-02-21T10:40:00.230Z,28.30
2023-02-21T10:41:00.231Z,28.45
2023-02-21T10:42:00.205Z,28.45
2023-02-21T10:43:00.218Z,28.34
2023-02-21T10:44:00.225Z,28.46
2023-02-21T10:45:00.204Z,28.67
2023-02-21T10:47:00.281Z,28.75
2023-02-21T10:48:00.251Z,28.62
2023-02-21T10:49:00.241Z,28.62
2023-02-21T10:50:00.271Z,29.04
2023-02-21T10:51:00.217Z,29.09
2023-02-21T10:52:00.282Z,29.26
2023-02-21T10:53:00.422Z,29.15
2023-02-21T10:54:00.223Z,29.15
2023-02-21T10:55:00.267Z,29.55
2023-02-21T10:56:00.228Z,29.55
2023-02-21T10:57:00.237Z,30.81
2023-02-21T10:58:00.305Z,30.48
2023-02-21T10:59:00.290Z,30.48
2023-02-21T11:00:00.272Z,30.57
2023-02-21T11:01:00.330Z,30.57
2023-02-21T11:02:00.283Z,31.06
2023-02-21T11:03:00.261Z,31.57
2023-02-21T11:04:00.284Z,32.10
2023-02-21T11:05:00.322Z,32.41
2023-02-21T11:06:00.311Z,32.69
2023-02-21T11:08:00.269Z,32.31
2023-02-21T11:09:00.311Z,32.19
2023-02-21T11:10:00.300Z,32.19
2023-02-21T11:11:00.290Z,32.42
2023-02-21T11:12:00.259Z,32.42
2023-02-21T11:13:00.324Z,31.87
2023-02-21T11:15:00.312Z,31.98
2023-02-21T11:16:00.328Z,31.98
2023-02-21T11:17:00.287Z,32.36
2023-02-21T11:18:00.330Z,32.69
2023-02-21T11:19:00.324Z,33.65
2023-02-21T11:20:00.437Z,33.44
2023-02-21T11:21:00.338Z,33.44
2023-02-21T11:22:00.342Z,33.63
2023-02-21T11:23:00.335Z,33.44
2023-02-21T11:24:00.335Z,33.51
2023-02-21T11:25:00.310Z,33.73
2023-02-21T11:26:00.308Z,33.73
2023-02-21T11:27:00.316Z,33.21
2023-02-21T11:28:00.335Z,33.21
2023-02-21T11:29:00.322Z,33.53
2023-02-21T11:30:00.346Z,33.53
2023-02-21T11:31:00.352Z,33.13
2023-02-21T11:32:00.373Z,33.32
2023-02-21T11:33:00.350Z,33.05
2023-02-21T11:34:00.322Z,33.16
2023-02-21T11:35:00.359Z,33.16
2023-02-21T11:36:00.390Z,33.92
2023-02-21T11:37:00.326Z,33.92
2023-02-21T11:38:00.427Z,34.29
2023-02-21T11:39:00.380Z,34.22
2023-02-21T11:40:00.413Z,34.00
2023-02-21T11:41:00.364Z,33.91
2023-02-21T11:42:00.404Z,34.34
2023-02-21T11:43:00.370Z,34.34
2023-02-21T11:44:00.394Z,34.57
2023-02-21T11:45:00.389Z,34.86
2023-02-21T11:46:00.433Z,34.62
2023-02-21T11:47:00.399Z,34.24
2023-02-21T11:48:00.389Z,34.51
2023-02-21T11:49:00.375Z,34.49
2023-02-21T11:50:00.372Z,34.30
2023-02-21T11:51:00.482Z,34.41
2023-02-21T11:52:00.375Z,34.38
2023-02-21T11:53:00.395Z,33.92
2023-02-21T11:54:00.430Z,33.96
2023-02-21T11:55:00.392Z,33.68
2023-02-21T11:56:00.462Z,33.58
2023-02-21T11:57:00.431Z,33.72
2023-02-21T11:58:00.413Z,33.87
2023-02-21T11:59:00.442Z,33.74
2023-02-21T12:00:00.394Z,33.65
2023-02-21T12:01:00.421Z,33.46
2023-02-21T12:02:00.405Z,33.42
2023-02-21T12:04:00.439Z,33.79
2023-02-21T12:05:00.437Z,33.79
2023-02-21T12:06:00.543Z,33.80
2023-02-21T12:07:00.449Z,33.67
2023-02-21T12:08:00.471Z,34.33
2023-02-21T12:09:00.472Z,34.24
2023-02-21T12:10:00.461Z,34.44
2023-02-21T12:11:00.467Z,34.56
2023-02-21T12:12:02.319Z,34.36
2023-02-21T12:13:00.427Z,34.36
2023-02-21T12:14:00.469Z,34.06
2023-02-21T12:15:00.448Z,33.44
2023-02-21T12:16:00.496Z,32.98
2023-02-21T12:17:00.488Z,33.52
2023-02-21T12:18:00.453Z,33.78
2023-02-21T12:19:00.492Z,33.60
2023-02-21T12:20:00.477Z,33.64
2023-02-21T12:21:00.482Z,33.64
2023-02-21T12:22:00.498Z,33.89
2023-02-21T12:24:00.502Z,33.79
2023-02-21T12:25:00.450Z,33.79
2023-02-21T12:26:00.471Z,33.60
2023-02-21T12:27:00.487Z,33.62
2023-02-21T12:28:00.470Z,33.49
2023-02-21T12:29:00.520Z,33.49
2023-02-21T12:30:00.488Z,33.36
2023-02-21T12:31:00.547Z,33.13
2023-02-21T12:32:00.690Z,33.39
2023-02-21T12:33:00.528Z,33.25
2023-02-21T12:34:00.509Z,33.03
2023-02-21T12:35:00.519Z,33.03
2023-02-21T12:36:00.596Z,32.73
2023-02-21T12:37:00.526Z,32.88
2023-02-21T12:38:00.500Z,32.88
2023-02-21T12:39:00.497Z,32.77
2023-02-21T12:41:00.505Z,32.61
2023-02-21T12:42:00.556Z,31.97
2023-02-21T12:45:00.563Z,32.20
2023-02-21T12:46:00.518Z,31.95
2023-02-21T12:48:00.526Z,32.16
2023-02-21T12:49:00.566Z,32.29
2023-02-21T12:50:00.590Z,32.27
2023-02-21T12:51:00.564Z,32.27
2023-02-21T12:52:00.577Z,32.29
2023-02-21T12:53:00.575Z,32.29
2023-02-21T12:54:00.533Z,31.88
2023-02-21T12:57:00.575Z,31.60
2023-02-21T12:58:00.556Z,31.69
2023-02-21T12:59:00.547Z,31.69
2023-02-21T13:00:00.750Z,32.10
2023-02-21T13:01:00.599Z,32.10
2023-02-21T13:02:00.591Z,32.25
2023-02-21T13:03:00.672Z,32.25
2023-02-21T13:05:00.640Z,32.26
2023-02-21T13:06:00.577Z,32.36
2023-02-21T13:07:00.575Z,32.66
2023-02-21T13:08:00.575Z,32.66
2023-02-21T13:09:00.650Z,32.66
2023-02-21T13:10:00.599Z,32.23
2023-02-21T13:12:00.626Z,32.44
2023-02-21T13:13:00.579Z,32.44
2023-02-21T13:15:00.647Z,32.13
2023-02-21T13:16:00.690Z,31.79
2023-02-21T13:17:00.641Z,31.76
2023-02-21T13:18:00.668Z,32.10
2023-02-21T13:20:00.595Z,32.20
2023-02-21T13:21:00.647Z,32.23
2023-02-21T13:22:00.609Z,32.23
2023-02-21T13:23:00.681Z,32.07
2023-02-21T13:24:00.664Z,31.82
2023-02-21T13:25:00.614Z,31.95
2023-02-21T13:26:00.632Z,31.89
2023-02-21T13:27:00.604Z,31.89
2023-02-21T13:28:00.661Z,31.95
2023-02-21T13:30:00.617Z,32.00
2023-02-21T13:31:00.903Z,32.04
2023-02-21T13:32:00.769Z,31.82
2023-02-21T13:34:00.677Z,31.81
2023-02-21T13:35:00.652Z,31.81
2023-02-21T13:36:00.717Z,30.91
2023-02-21T13:37:00.651Z,30.91
2023-02-21T13:38:00.676Z,30.96
2023-02-21T13:39:00.659Z,31.34
2023-02-21T13:40:00.652Z,31.34
2023-02-21T13:42:00.686Z,31.50
2023-02-21T13:43:00.664Z,31.80
2023-02-21T13:44:00.662Z,31.73
2023-02-21T13:45:00.700Z,31.73
2023-02-21T13:46:00.692Z,31.85
2023-02-21T13:47:00.672Z,32.06
2023-02-21T13:48:00.684Z,32.07
2023-02-21T13:49:00.711Z,31.99
2023-02-21T13:50:00.695Z,31.96
2023-02-21T13:51:00.682Z,31.96
2023-02-21T13:52:00.733Z,31.87
2023-02-21T13:53:00.696Z,31.95
2023-02-21T13:54:00.773Z,31.87
2023-02-21T13:56:00.730Z,31.57
2023-02-21T13:57:00.699Z,31.44
2023-02-21T13:58:00.741Z,31.16
2023-02-21T13:59:00.750Z,31.34
2023-02-21T14:00:00.776Z,31.34
2023-02-21T14:01:00.751Z,31.88
2023-02-21T14:02:00.741Z,31.57
2023-02-21T14:03:00.722Z,31.75
2023-02-21T14:04:00.758Z,31.75
2023-02-21T14:05:00.736Z,31.89
2023-02-21T14:06:00.761Z,32.08
2023-02-21T14:09:00.780Z,32.29
2023-02-21T14:10:00.772Z,32.43
2023-02-21T14:11:00.743Z,32.58
2023-02-21T14:12:00.776Z,32.71
2023-02-21T14:13:00.737Z,32.93
2023-02-21T14:14:00.750Z,32.97
2023-02-21T14:16:00.844Z,33.11
2023-02-21T14:17:00.784Z,33.42
2023-02-21T14:18:00.790Z,33.59
2023-02-21T14:19:00.754Z,33.79
2023-02-21T14:20:00.824Z,34.05
2023-02-21T14:21:00.798Z,34.20
2023-02-21T14:22:00.801Z,34.22
2023-02-21T14:23:00.817Z,34.22
2023-02-21T14:24:00.816Z,34.39
2023-02-21T14:25:00.791Z,34.43
2023-02-21T14:26:00.809Z,34.26
2023-02-21T14:27:00.829Z,34.40
2023-02-21T14:28:00.844Z,34.58
2023-02-21T14:31:00.830Z,34.60
2023-02-21T14:32:00.906Z,34.72
2023-02-21T14:33:00.832Z,34.61
2023-02-21T14:34:00.796Z,34.43
2023-02-21T14:36:00.827Z,34.47
2023-02-21T14:37:00.797Z,34.73
2023-02-21T14:39:00.815Z,34.69
2023-02-21T14:40:00.839Z,34.63
2023-02-21T14:41:00.853Z,34.55
2023-02-21T14:42:00.828Z,34.57
2023-02-21T14:43:00.821Z,34.79
2023-02-21T14:45:00.820Z,34.91